Virgo Phoenix — 3FMO8 — position and weather

sailwx.info

Track history (hours):
 
Tides and Currents Weather Stations Pressure Air Temp Water Temp Dewpoint Dewpoint Depression Visibility Wind Speed Wind Dir Waves Ship Positions

Virgo Phoenix

Last reported at 2016-Feb-09 08:04 UTC. Time now 2016-Feb-14 03:47 UTC.
Position N 35°10' E 139°45'.

Length 96 m; draft 5.3 m.

Type: Ship (hazmat cat C). MMSI: 370795000.

Date/timePositionNaut miles runAvg speedWind from/ knotsBaromVisibWave heightAir tempDewpointWater temp
2016-Feb-09 08:04N 35°10' E 139°45'612.5
2016-Feb-09 07:33N 35°16' E 139°45'1010.0
2016-Feb-09 06:33N 35°26' E 139°45'5 5.3
2016-Feb-09 05:33N 35°31' E 139°46'0 0.0
2016-Feb-09 04:30N 35°31' E 139°46'0 0.0
2016-Feb-09 03:27N 35°31' E 139°46'0 0.0
2016-Feb-09 02:33N 35°31' E 139°46'1 0.6
2016-Feb-09 01:33N 35°31' E 139°46'4 3.6
2016-Feb-09 00:31N 35°28' E 139°44'0 0.0
2016-Feb-08 23:31N 35°28' E 139°44'0 0.1
2016-Feb-08 22:31N 35°28' E 139°44'0 0.0
2016-Feb-08 21:31N 35°28' E 139°44'0 0.0
2016-Feb-08 20:31N 35°28' E 139°44'0 0.1
2016-Feb-08 19:31N 35°28' E 139°44'0 0.0
2016-Feb-08 18:31N 35°28' E 139°44'0 0.0
2016-Feb-08 17:31N 35°28' E 139°44'0 0.0
2016-Feb-08 16:31N 35°28' E 139°44'0 0.1
2016-Feb-08 15:31N 35°28' E 139°44'0 0.1
2016-Feb-08 14:31N 35°28' E 139°44'0 0.0
2016-Feb-08 13:31N 35°28' E 139°44'0 0.0
2016-Feb-08 12:31N 35°28' E 139°44'0 0.0
2016-Feb-08 11:31N 35°28' E 139°44'0 0.3
2016-Feb-08 10:33N 35°28' E 139°44'1110.9
2016-Feb-08 09:33N 35°17' E 139°46'24611.4
2016-Feb-07 12:04N 34°07' E 134°59'714.0
2016-Feb-07 11:33N 34°14' E 134°58'1312.9
2016-Feb-07 10:31N 34°26' E 135°06'1313.8
2016-Feb-07 09:34N 34°37' E 135°16'5 5.0
2016-Feb-07 08:29N 34°42' E 135°15'0 0.0
2016-Feb-07 07:11N 34°42' E 135°15'0 0.0
2016-Feb-07 06:29N 34°42' E 135°15'0 0.0
2016-Feb-07 05:23N 34°42' E 135°15'0 0.0
2016-Feb-07 04:29N 34°42' E 135°15'0 0.0
2016-Feb-07 03:29N 34°42' E 135°15'1 1.3
2016-Feb-07 02:33N 34°41' E 135°15'5 5.2
2016-Feb-07 01:33N 34°36' E 135°16'1010.1
2016-Feb-07 00:33N 34°27' E 135°10'10 9.4
2016-Feb-06 23:30N 34°20' E 135°01'1010.2
2016-Feb-06 22:33N 34°11' E 134°59'  
2016-Feb-04 13:31N 31°20' E 121°41'1010.8
2016-Feb-04 12:33N 31°25' E 121°31'9 8.9
2016-Feb-04 11:33N 31°31' E 121°23'1412.9
2016-Feb-04 10:31N 31°40' E 121°12'1614.2
2016-Feb-04 09:23N 31°48' E 120°55'1214.4
2016-Feb-04 08:33N 31°59' E 120°50'1211.2
2016-Feb-04 07:30N 32°01' E 120°36'10 9.7
2016-Feb-04 06:29N 32°02' E 120°24'1111.6
2016-Feb-04 05:32N 31°56' E 120°14'14 0.6
2016-Feb-03 06:21N 32°01' E 119°58'1212.4
2016-Feb-03 05:24N 31°56' E 120°11'14 0.9
2016-Feb-02 13:24N 32°00' E 120°27'9 9.7
2016-Feb-02 12:30N 31°60' E 120°37'1211.4
2016-Feb-02 11:29N 31°59' E 120°51'1212.6
2016-Feb-02 10:33N 31°48' E 120°56'1212.1
2016-Feb-02 09:33N 31°42' E 121°08'1212.1
2016-Feb-02 08:34N 31°34' E 121°19'1211.8
2016-Feb-02 07:33N 31°26' E 121°29'9 9.1
2016-Feb-02 06:33N 31°22' E 121°38'  
Track history (hours):
 
Tides and Currents Weather Stations Pressure Air Temp Water Temp Dewpoint Dewpoint Depression Visibility Wind Speed Wind Dir Waves Ship Positions

Virgo Phoenix

Last reported at 2016-Feb-09 08:04 UTC. Time now 2016-Feb-14 03:47 UTC.
Position N 35°10' E 139°45'.

Length 96 m; draft 5.3 m.

Type: Ship (hazmat cat C). MMSI: 370795000.

Date/timePositionNaut miles runAvg speedWind from/ knotsBaromVisibWave heightAir tempDewpointWater temp
2016-Feb-09 08:04N 35°10' E 139°45'612.5
2016-Feb-09 07:33N 35°16' E 139°45'1010.0
2016-Feb-09 06:33N 35°26' E 139°45'5 5.3
2016-Feb-09 05:33N 35°31' E 139°46'0 0.0
2016-Feb-09 04:30N 35°31' E 139°46'0 0.0
2016-Feb-09 03:27N 35°31' E 139°46'0 0.0
2016-Feb-09 02:33N 35°31' E 139°46'1 0.6
2016-Feb-09 01:33N 35°31' E 139°46'4 3.6
2016-Feb-09 00:31N 35°28' E 139°44'0 0.0
2016-Feb-08 23:31N 35°28' E 139°44'0 0.1
2016-Feb-08 22:31N 35°28' E 139°44'0 0.0
2016-Feb-08 21:31N 35°28' E 139°44'0 0.0
2016-Feb-08 20:31N 35°28' E 139°44'0 0.1
2016-Feb-08 19:31N 35°28' E 139°44'0 0.0
2016-Feb-08 18:31N 35°28' E 139°44'0 0.0
2016-Feb-08 17:31N 35°28' E 139°44'0 0.0
2016-Feb-08 16:31N 35°28' E 139°44'0 0.1
2016-Feb-08 15:31N 35°28' E 139°44'0 0.1
2016-Feb-08 14:31N 35°28' E 139°44'0 0.0
2016-Feb-08 13:31N 35°28' E 139°44'0 0.0
2016-Feb-08 12:31N 35°28' E 139°44'0 0.0
2016-Feb-08 11:31N 35°28' E 139°44'0 0.3
2016-Feb-08 10:33N 35°28' E 139°44'1110.9
2016-Feb-08 09:33N 35°17' E 139°46'24611.4
2016-Feb-07 12:04N 34°07' E 134°59'714.0
2016-Feb-07 11:33N 34°14' E 134°58'1312.9
2016-Feb-07 10:31N 34°26' E 135°06'1313.8
2016-Feb-07 09:34N 34°37' E 135°16'5 5.0
2016-Feb-07 08:29N 34°42' E 135°15'0 0.0
2016-Feb-07 07:11N 34°42' E 135°15'0 0.0
2016-Feb-07 06:29N 34°42' E 135°15'0 0.0
2016-Feb-07 05:23N 34°42' E 135°15'0 0.0
2016-Feb-07 04:29N 34°42' E 135°15'0 0.0
2016-Feb-07 03:29N 34°42' E 135°15'1 1.3
2016-Feb-07 02:33N 34°41' E 135°15'5 5.2
2016-Feb-07 01:33N 34°36' E 135°16'1010.1
2016-Feb-07 00:33N 34°27' E 135°10'10 9.4
2016-Feb-06 23:30N 34°20' E 135°01'1010.2
2016-Feb-06 22:33N 34°11' E 134°59'  
2016-Feb-04 13:31N 31°20' E 121°41'1010.8
2016-Feb-04 12:33N 31°25' E 121°31'9 8.9
2016-Feb-04 11:33N 31°31' E 121°23'1412.9
2016-Feb-04 10:31N 31°40' E 121°12'1614.2
2016-Feb-04 09:23N 31°48' E 120°55'1214.4
2016-Feb-04 08:33N 31°59' E 120°50'1211.2
2016-Feb-04 07:30N 32°01' E 120°36'10 9.7
2016-Feb-04 06:29N 32°02' E 120°24'1111.6
2016-Feb-04 05:32N 31°56' E 120°14'14 0.6
2016-Feb-03 06:21N 32°01' E 119°58'1212.4
2016-Feb-03 05:24N 31°56' E 120°11'14 0.9
2016-Feb-02 13:24N 32°00' E 120°27'9 9.7
2016-Feb-02 12:30N 31°60' E 120°37'1211.4
2016-Feb-02 11:29N 31°59' E 120°51'1212.6
2016-Feb-02 10:33N 31°48' E 120°56'1212.1
2016-Feb-02 09:33N 31°42' E 121°08'1212.1
2016-Feb-02 08:34N 31°34' E 121°19'1211.8
2016-Feb-02 07:33N 31°26' E 121°29'9 9.1
2016-Feb-02 06:33N 31°22' E 121°38'  

Dump ship's entire track history